EGNS

Isle of Man Airport

Castletown, Isle of Man
TAF EGNS 201700Z 2018/2022 35010KT 9999 FEW020
Issued Valid From Valid To
Jan-20 @ 17:00 UTC
(4 hours ago)
Jan-20 @ 18:00 UTC
(3 hours ago)
Jan-20 @ 22:00 UTC
(in 43 minutes)
Jan-20 @ 18:00 to Jan-20 @ 22:00
TAF EGNS 201700Z 2018/2022 35010KT 9999 FEW020
Wind Visibility Clouds
350° at 10 knots 10,000+ meters
  • Few at 2,000' AGL
TAF EGNS 201700Z 2018/2022 35010KT 9999 FEW020
Issued Jan-20 @ 17:00 UTC
(4 hours ago)
Valid From Jan-20 @ 18:00 UTC
(3 hours ago)
Valid To Jan-20 @ 22:00 UTC
(in 43 minutes)
Jan-20 @ 18:00 - Jan-20 @ 22:00
Wind Visibility
350° at 10 knots 10,000+ meters
Clouds
  • Few at 2,000' AGL